Time;durP1;ratioP1;P1;durP2;ratioP2;P2;SDS_P1;SDS_P2;PMS_P1;PMS_P2;Temp;Humidity;BMP_temperature;BMP_pressure;BME280_temperature;BME280_humidity;BME280_pressure;Samples;Min_cycle;Max_cycle;Signal;HPM_P1;HPM_P2
2022/08/24 00:00:30;;;;;;;4.87;3.47;;;20.80;99.90;;;;;;5065236;28;20190;-69
2022/08/24 00:02:57;;;;;;;5.33;3.57;;;20.70;99.90;;;;;;5072308;28;20216;-67
2022/08/24 00:05:23;;;;;;;4.25;3.85;;;20.70;99.90;;;;;;5063703;28;20194;-68
2022/08/24 00:07:50;;;;;;;5.25;3.97;;;20.60;99.90;;;;;;5070104;28;20236;-68
2022/08/24 00:10:19;;;;;;;5.17;4.27;;;20.60;99.90;;;;;;5071872;28;20201;-68
2022/08/24 00:12:46;;;;;;;5.67;4.40;;;20.60;99.90;;;;;;5070660;28;20202;-68
2022/08/24 00:15:15;;;;;;;6.67;4.13;;;20.50;99.90;;;;;;5065956;28;20198;-68
2022/08/24 00:17:42;;;;;;;7.07;4.67;;;20.60;99.90;;;;;;5069424;28;20220;-68
2022/08/24 00:20:10;;;;;;;6.00;4.10;;;20.50;99.90;;;;;;5071315;28;20720;-68
2022/08/24 00:22:37;;;;;;;6.03;4.20;;;20.50;99.90;;;;;;5067875;28;20194;-68
2022/08/24 00:25:04;;;;;;;4.57;3.67;;;20.70;99.90;;;;;;5078169;28;20202;-68
2022/08/24 00:27:31;;;;;;;5.67;4.10;;;20.60;99.90;;;;;;5069593;28;20224;-68
2022/08/24 00:29:58;;;;;;;5.73;3.80;;;20.50;99.90;;;;;;5073708;28;20200;-68
2022/08/24 00:32:24;;;;;;;5.30;3.80;;;20.40;99.90;;;;;;5071989;28;20211;-68
2022/08/24 00:34:51;;;;;;;4.93;3.80;;;20.30;99.90;;;;;;5052344;28;20207;-67
2022/08/24 00:37:27;;;;;;;7.97;4.60;;;20.10;99.90;;;;;;5069177;28;20258;-67
2022/08/24 00:39:54;;;;;;;5.27;3.90;;;20.10;99.90;;;;;;5069763;28;20186;-67
2022/08/24 00:42:21;;;;;;;5.07;4.00;;;20.00;99.90;;;;;;5066314;28;20229;-67
2022/08/24 00:44:48;;;;;;;5.87;3.83;;;20.10;99.90;;;;;;5069107;28;20240;-68
2022/08/24 00:47:30;;;;;;;5.93;4.00;;;20.00;99.90;;;;;;5067466;28;20214;-68
2022/08/24 00:50:05;;;;;;;7.50;4.60;;;20.10;99.90;;;;;;5069049;28;20194;-68
2022/08/24 00:52:38;;;;;;;4.77;4.00;;;20.10;99.90;;;;;;5071381;28;20288;-68
2022/08/24 00:55:16;;;;;;;5.33;3.97;;;20.10;99.90;;;;;;5065093;28;20255;-68
2022/08/24 00:57:48;;;;;;;7.07;4.20;;;20.10;99.90;;;;;;5064985;28;20271;-65
2022/08/24 01:00:22;;;;;;;5.60;3.87;;;20.00;99.90;;;;;;5069597;28;20187;-68
2022/08/24 01:02:57;;;;;;;4.40;3.90;;;19.90;99.90;;;;;;5064918;28;20666;-67
2022/08/24 01:05:24;;;;;;;4.90;4.00;;;20.00;99.90;;;;;;5050866;28;20256;-68
2022/08/24 01:07:51;;;;;;;5.23;4.43;;;20.00;99.90;;;;;;5070923;28;20209;-68
2022/08/24 01:10:23;;;;;;;4.40;4.00;;;20.00;99.90;;;;;;5062482;28;20572;-68
2022/08/24 01:12:54;;;;;;;6.10;3.90;;;20.00;99.90;;;;;;5067932;28;20198;-66
2022/08/24 01:15:32;;;;;;;8.10;4.27;;;20.00;99.90;;;;;;5048035;28;20206;-67
2022/08/24 01:20:48;;;;;;;5.77;4.00;;;20.00;99.90;;;;;;5066321;28;20236;-67
2022/08/24 01:23:31;;;;;;;6.57;3.90;;;20.00;99.90;;;;;;5050475;28;20290;-66
2022/08/24 01:26:03;;;;;;;5.40;4.13;;;19.90;99.90;;;;;;5068333;28;20214;-68
2022/08/24 01:28:30;;;;;;;7.47;4.27;;;19.90;99.90;;;;;;5063102;28;20285;-68
2022/08/24 01:30:58;;;;;;;4.27;3.87;;;19.80;99.90;;;;;;5064875;28;20248;-68
2022/08/24 01:33:27;;;;;;;5.10;4.30;;;19.60;99.90;;;;;;5067506;28;20643;-68
2022/08/24 01:36:08;;;;;;;5.40;3.87;;;19.40;99.90;;;;;;5066297;28;20214;-68
2022/08/24 01:38:34;;;;;;;5.07;3.80;;;19.30;99.90;;;;;;5067668;28;20698;-68
2022/08/24 01:41:02;;;;;;;4.80;3.80;;;19.30;99.90;;;;;;5062960;28;20199;-68
2022/08/24 01:43:29;;;;;;;5.33;3.67;;;19.20;99.90;;;;;;5067044;28;20282;-68
2022/08/24 01:45:59;;;;;;;4.77;3.97;;;19.10;99.90;;;;;;5075054;28;20746;-67
2022/08/24 01:48:26;;;;;;;6.47;3.67;;;19.10;99.90;;;;;;5073300;28;20213;-68
2022/08/24 01:50:53;;;;;;;6.20;3.30;;;19.10;99.90;;;;;;5075362;28;20197;-68
2022/08/24 01:53:20;;;;;;;5.60;3.80;;;19.00;99.90;;;;;;5069126;28;20255;-68
2022/08/24 01:55:47;;;;;;;5.97;4.03;;;19.00;99.90;;;;;;5068115;28;20220;-68
2022/08/24 01:58:13;;;;;;;7.53;4.17;;;19.10;99.90;;;;;;5058890;28;20276;-69
2022/08/24 02:00:41;;;;;;;6.50;4.17;;;19.00;99.90;;;;;;5067498;28;20328;-67
2022/08/24 02:03:08;;;;;;;5.80;4.30;;;19.00;99.90;;;;;;5051017;28;20551;-67
2022/08/24 02:05:35;;;;;;;5.83;3.83;;;19.10;99.90;;;;;;5070413;28;20538;-67
2022/08/24 02:08:02;;;;;;;6.63;4.30;;;19.10;99.90;;;;;;5051964;28;20202;-68
2022/08/24 02:10:29;;;;;;;6.33;4.43;;;19.20;99.90;;;;;;5055476;28;20202;-68
2022/08/24 02:12:56;;;;;;;4.67;3.80;;;19.10;99.90;;;;;;5069495;28;20206;-67
2022/08/24 02:15:30;;;;;;;4.57;3.90;;;19.00;99.90;;;;;;5059679;28;20584;-68
2022/08/24 02:17:57;;;;;;;7.50;4.13;;;19.10;99.90;;;;;;5065767;28;20225;-68
2022/08/24 02:20:24;;;;;;;5.93;3.93;;;19.10;99.90;;;;;;5067173;28;20206;-67
2022/08/24 02:22:53;;;;;;;7.23;4.00;;;19.20;99.90;;;;;;5070568;28;20206;-68
2022/08/24 02:25:20;;;;;;;5.27;3.90;;;19.30;99.90;;;;;;5075805;28;20197;-69
2022/08/24 02:27:47;;;;;;;5.43;3.80;;;19.10;99.90;;;;;;5064015;28;20198;-67
2022/08/24 02:30:14;;;;;;;6.33;3.97;;;19.00;99.90;;;;;;5069972;28;20195;-68
2022/08/24 02:32:42;;;;;;;6.47;3.90;;;19.00;99.90;;;;;;5066145;28;20199;-69
2022/08/24 02:35:09;;;;;;;7.50;4.40;;;18.90;99.90;;;;;;5081630;28;20201;-68
2022/08/24 02:37:36;;;;;;;11.07;3.90;;;18.90;99.90;;;;;;5055977;28;20223;-66
2022/08/24 02:40:11;;;;;;;6.17;3.50;;;18.90;99.90;;;;;;5063788;28;20273;-68
2022/08/24 02:42:38;;;;;;;3.90;3.50;;;19.00;99.90;;;;;;5069749;28;20637;-67
2022/08/24 02:45:05;;;;;;;6.90;3.53;;;19.00;99.90;;;;;;5062752;28;20681;-67
2022/08/24 02:47:33;;;;;;;6.13;3.63;;;19.10;99.90;;;;;;5051965;28;20284;-66
2022/08/24 02:50:08;;;;;;;5.63;3.50;;;19.00;99.90;;;;;;5064346;28;20197;-67
2022/08/24 02:52:38;;;;;;;6.00;3.70;;;19.00;99.90;;;;;;5057065;28;20195;-68
2022/08/24 02:55:06;;;;;;;5.70;3.30;;;19.00;99.90;;;;;;5064394;28;20198;-68
2022/08/24 02:57:33;;;;;;;4.83;3.50;;;18.90;99.90;;;;;;5064812;28;20221;-66
2022/08/24 03:00:00;;;;;;;5.37;3.60;;;18.70;99.90;;;;;;5066336;28;20186;-68
2022/08/24 03:02:26;;;;;;;6.30;3.27;;;18.60;99.90;;;;;;5041845;28;20199;-66
2022/08/24 03:04:53;;;;;;;7.10;3.63;;;18.60;99.90;;;;;;5061525;28;20282;-67
2022/08/24 03:07:20;;;;;;;3.93;3.53;;;18.60;99.90;;;;;;5070896;28;20634;-68
2022/08/24 03:09:47;;;;;;;5.70;3.77;;;18.50;99.90;;;;;;5060376;28;20207;-68
2022/08/24 03:12:14;;;;;;;5.40;3.73;;;18.70;99.90;;;;;;5069688;28;20198;-67
2022/08/24 03:14:40;;;;;;;6.10;4.10;;;18.60;99.90;;;;;;5057120;28;20264;-68
2022/08/24 03:17:07;;;;;;;6.37;4.23;;;18.50;99.90;;;;;;5065222;28;20641;-68
2022/08/24 03:19:34;;;;;;;7.90;4.37;;;18.50;99.90;;;;;;5059582;28;20205;-67
2022/08/24 03:22:01;;;;;;;4.77;3.83;;;18.50;99.90;;;;;;5059192;28;20201;-68
2022/08/24 03:24:27;;;;;;;5.53;4.00;;;18.40;99.90;;;;;;5067449;28;20661;-67
2022/08/24 03:26:54;;;;;;;5.27;3.70;;;18.40;99.90;;;;;;5062106;28;20225;-67
2022/08/24 03:29:21;;;;;;;5.53;3.93;;;18.40;99.90;;;;;;5064172;28;20256;-65
2022/08/24 03:31:49;;;;;;;4.90;3.67;;;18.40;99.90;;;;;;5057009;28;20198;-68
2022/08/24 03:34:18;;;;;;;5.43;3.73;;;18.40;99.90;;;;;;5064125;28;20670;-68
2022/08/24 03:36:45;;;;;;;5.67;3.30;;;18.50;99.90;;;;;;5061114;28;20222;-68
2022/08/24 03:39:13;;;;;;;4.63;3.10;;;18.40;99.90;;;;;;5070282;28;20206;-67
2022/08/24 03:41:40;;;;;;;5.30;3.30;;;18.50;99.90;;;;;;5066176;28;20194;-67
2022/08/24 03:44:06;;;;;;;5.63;3.67;;;18.60;99.90;;;;;;5059518;28;20202;-67
2022/08/24 03:46:36;;;;;;;4.63;3.67;;;18.70;99.90;;;;;;5068164;28;20218;-68
2022/08/24 03:49:07;;;;;;;5.30;3.60;;;18.60;99.90;;;;;;5066558;28;20205;-68
2022/08/24 03:51:35;;;;;;;6.83;3.80;;;18.60;99.90;;;;;;5063207;28;20198;-68
2022/08/24 03:54:04;;;;;;;5.60;3.70;;;18.70;99.90;;;;;;5055749;28;20197;-68
2022/08/24 03:56:31;;;;;;;5.40;3.80;;;18.70;99.90;;;;;;5050208;28;20230;-68
2022/08/24 03:58:58;;;;;;;6.10;3.27;;;18.80;99.90;;;;;;5068817;28;20759;-68
2022/08/24 04:01:25;;;;;;;7.77;3.60;;;18.90;99.90;;;;;;5069118;28;20251;-66
2022/08/24 04:03:52;;;;;;;6.83;3.80;;;19.00;99.90;;;;;;5068082;28;20236;-68
2022/08/24 04:06:21;;;;;;;3.80;3.20;;;18.90;99.90;;;;;;5066826;28;20210;-66
2022/08/24 04:08:48;;;;;;;5.23;3.27;;;18.90;99.90;;;;;;5064131;28;20197;-68
2022/08/24 04:11:18;;;;;;;5.07;3.47;;;18.90;99.90;;;;;;5069735;28;20198;-66
2022/08/24 04:13:45;;;;;;;4.27;3.03;;;18.80;99.90;;;;;;5059524;28;20194;-65
2022/08/24 04:16:15;;;;;;;5.93;3.10;;;18.90;99.90;;;;;;5069610;28;20225;-68
2022/08/24 04:18:42;;;;;;;4.20;2.80;;;18.90;99.90;;;;;;5066780;28;20206;-68
2022/08/24 04:21:21;;;;;;;4.40;2.90;;;18.90;99.90;;;;;;5059539;28;20191;-68
2022/08/24 04:23:49;;;;;;;4.73;3.03;;;18.90;99.90;;;;;;5068651;28;20186;-67
2022/08/24 04:26:16;;;;;;;3.47;2.97;;;18.80;99.90;;;;;;5069657;28;20206;-65
2022/08/24 04:29:05;;;;;;;6.33;3.50;;;18.80;99.90;;;;;;5068212;28;20613;-68
2022/08/24 04:31:35;;;;;;;5.27;3.30;;;18.70;99.90;;;;;;5067611;28;20654;-68
2022/08/24 04:34:02;;;;;;;3.30;3.00;;;18.70;99.90;;;;;;5061682;28;20272;-68
2022/08/24 04:36:30;;;;;;;4.30;2.93;;;18.80;99.90;;;;;;5060002;28;20242;-68
2022/08/24 04:38:57;;;;;;;5.80;3.73;;;18.80;99.90;;;;;;5061588;28;20225;-68
2022/08/24 04:41:24;;;;;;;4.17;3.07;;;18.80;99.90;;;;;;5050020;28;20575;-68
2022/08/24 04:43:58;;;;;;;5.13;3.13;;;18.80;99.90;;;;;;5061128;28;20570;-68
2022/08/24 04:46:25;;;;;;;6.57;3.30;;;18.80;99.90;;;;;;5066796;28;20305;-66
2022/08/24 04:48:52;;;;;;;4.63;2.90;;;18.80;99.90;;;;;;5067034;28;20281;-67
2022/08/24 04:51:19;;;;;;;4.20;2.90;;;18.80;99.90;;;;;;5069331;28;20198;-68
2022/08/24 04:53:49;;;;;;;4.67;3.37;;;18.80;99.90;;;;;;5067498;28;20625;-66
2022/08/24 04:56:18;;;;;;;4.70;2.97;;;18.80;99.90;;;;;;5065295;28;20280;-68
2022/08/24 04:58:46;;;;;;;7.27;3.37;;;18.90;99.90;;;;;;5052082;28;20250;-68
2022/08/24 05:01:16;;;;;;;3.20;2.80;;;19.00;99.90;;;;;;5061173;28;20654;-68
2022/08/24 05:03:46;;;;;;;4.30;3.40;;;18.90;99.90;;;;;;5059478;28;20709;-68
2022/08/24 05:06:15;;;;;;;8.03;3.33;;;19.00;99.90;;;;;;5062431;28;20222;-68
2022/08/24 05:08:42;;;;;;;3.97;3.00;;;19.10;99.90;;;;;;5059236;28;20213;-67
2022/08/24 05:11:09;;;;;;;4.40;3.00;;;19.10;99.90;;;;;;5066349;28;20637;-67
2022/08/24 05:13:36;;;;;;;3.00;2.57;;;19.20;99.90;;;;;;5063666;28;20198;-67
2022/08/24 05:16:08;;;;;;;3.47;2.67;;;19.20;99.90;;;;;;5064141;28;20217;-67
2022/08/24 05:18:35;;;;;;;4.40;2.83;;;19.30;99.90;;;;;;5071587;28;20214;-67
2022/08/24 05:21:12;;;;;;;5.67;2.73;;;19.30;99.90;;;;;;5067983;28;20297;-73
2022/08/24 05:23:40;;;;;;;4.53;2.90;;;19.40;99.90;;;;;;5054281;28;20211;-70
2022/08/24 05:26:12;;;;;;;4.73;2.97;;;19.50;99.90;;;;;;5049225;28;20302;-70
2022/08/24 05:28:40;;;;;;;5.03;3.00;;;19.50;99.90;;;;;;5065804;28;20233;-69
2022/08/24 05:31:20;;;;;;;5.40;2.90;;;19.80;99.90;;;;;;5059017;28;20281;-68
2022/08/24 05:33:47;;;;;;;4.77;2.70;;;20.00;99.90;;;;;;5060908;28;20205;-69
2022/08/24 05:36:16;;;;;;;5.33;2.77;;;20.10;99.90;;;;;;5065857;28;20237;-70
2022/08/24 05:38:43;;;;;;;3.90;2.60;;;20.30;99.90;;;;;;5051255;28;20214;-70
2022/08/24 05:41:09;;;;;;;4.77;2.70;;;20.30;99.90;;;;;;5068320;28;20213;-68
2022/08/24 05:43:36;;;;;;;4.20;2.60;;;20.30;99.90;;;;;;5061242;28;20191;-70
2022/08/24 05:46:03;;;;;;;6.57;2.90;;;20.40;99.90;;;;;;5064685;28;20206;-68
2022/08/24 05:48:29;;;;;;;6.80;3.00;;;20.60;99.90;;;;;;5071560;28;20705;-69
2022/08/24 05:50:57;;;;;;;4.63;2.70;;;20.50;99.90;;;;;;5066480;28;20209;-67
2022/08/24 05:53:23;;;;;;;5.60;3.20;;;20.40;99.90;;;;;;5069668;28;20234;-70
2022/08/24 05:55:50;;;;;;;5.30;3.30;;;20.40;99.90;;;;;;5067358;28;20221;-68
2022/08/24 05:58:17;;;;;;;3.93;2.70;;;20.40;99.90;;;;;;5063992;28;20215;-70
2022/08/24 06:00:58;;;;;;;4.10;2.37;;;20.30;99.90;;;;;;5060930;28;20199;-71
2022/08/24 06:03:25;;;;;;;3.63;2.60;;;20.40;99.90;;;;;;5054727;28;20198;-71
2022/08/24 06:05:53;;;;;;;6.63;2.83;;;20.50;99.90;;;;;;5059945;28;20214;-70
2022/08/24 06:08:20;;;;;;;4.53;2.70;;;20.60;99.90;;;;;;5056526;28;20202;-71
2022/08/24 06:10:47;;;;;;;4.97;3.00;;;20.80;99.90;;;;;;5064020;28;20651;-70
2022/08/24 06:13:15;;;;;;;6.15;2.65;;;20.90;99.90;;;;;;5063868;28;20205;-71
2022/08/24 06:15:42;;;;;;;3.90;2.72;;;21.00;99.90;;;;;;5064217;28;20647;-71
2022/08/24 06:18:25;;;;;;;3.88;2.50;;;21.00;99.90;;;;;;5066143;28;20218;-70
2022/08/24 06:20:52;;;;;;;5.47;2.78;;;21.20;99.90;;;;;;5061764;28;20213;-69
2022/08/24 06:23:23;;;;;;;4.55;3.05;;;21.40;99.90;;;;;;5066975;28;20190;-71
2022/08/24 06:28:40;;;;;;;5.68;2.50;;;21.60;99.90;;;;;;5067855;28;20209;-72
2022/08/24 06:31:07;;;;;;;2.67;2.28;;;21.70;99.90;;;;;;5056868;28;20199;-71
2022/08/24 06:33:34;;;;;;;4.45;2.80;;;21.70;99.90;;;;;;5063551;28;20649;-70
2022/08/24 06:36:00;;;;;;;7.75;2.72;;;21.80;99.90;;;;;;5056700;28;20214;-68
2022/08/24 06:38:29;;;;;;;3.72;2.47;;;22.00;99.90;;;;;;5065835;28;20639;-68
2022/08/24 06:40:57;;;;;;;6.15;2.60;;;22.20;99.90;;;;;;5059929;28;20548;-71
2022/08/24 06:43:24;;;;;;;7.53;2.65;;;22.30;99.90;;;;;;5066920;28;20205;-71
2022/08/24 06:45:53;;;;;;;5.20;2.53;;;22.50;99.90;;;;;;5066575;28;20211;-71
2022/08/24 06:48:20;;;;;;;9.63;2.72;;;22.70;99.90;;;;;;5066608;28;20194;-69
2022/08/24 06:50:48;;;;;;;13.05;2.80;;;22.80;99.90;;;;;;5062641;28;20194;-70
2022/08/24 06:53:15;;;;;;;8.38;2.60;;;22.90;99.90;;;;;;5061652;28;20220;-71
2022/08/24 06:55:49;;;;;;;3.67;2.60;;;23.10;99.90;;;;;;5051938;28;20214;-70
2022/08/24 06:58:17;;;;;;;6.03;2.47;;;23.20;99.90;;;;;;5065287;28;20214;-71
2022/08/24 07:00:45;;;;;;;5.30;2.75;;;23.30;99.90;;;;;;5067055;28;20290;-71
2022/08/24 07:03:12;;;;;;;6.78;2.30;;;23.50;99.90;;;;;;5066760;28;20190;-71
2022/08/24 07:05:38;;;;;;;4.43;2.20;;;23.70;99.90;;;;;;5058278;28;20226;-70
2022/08/24 07:08:06;;;;;;;4.20;2.30;;;23.80;99.90;;;;;;5066631;28;20683;-70
2022/08/24 07:10:33;;;;;;;4.18;2.38;;;23.90;99.90;;;;;;5061415;28;20217;-69
2022/08/24 07:13:00;;;;;;;3.45;2.25;;;23.90;99.90;;;;;;5048337;28;20261;-72
2022/08/24 07:15:27;;;;;;;4.78;2.30;;;24.00;99.90;;;;;;5060394;28;20651;-72
2022/08/24 07:17:54;;;;;;;4.60;2.22;;;24.10;99.90;;;;;;5060887;28;20348;-70
2022/08/24 07:20:21;;;;;;;6.63;2.30;;;24.20;99.90;;;;;;5063918;28;20205;-72
2022/08/24 07:22:47;;;;;;;3.65;2.30;;;24.30;99.90;;;;;;5069107;28;20204;-72
2022/08/24 07:25:14;;;;;;;7.60;2.33;;;24.40;99.90;;;;;;5063765;28;20194;-72
2022/08/24 07:27:41;;;;;;;3.10;2.08;;;24.50;99.90;;;;;;5067608;28;20218;-72
2022/08/24 07:30:08;;;;;;;5.32;2.22;;;24.70;99.90;;;;;;5063089;28;20198;-71
2022/08/24 07:32:53;;;;;;;3.47;2.08;;;24.90;99.90;;;;;;5063189;28;20190;-71
2022/08/24 07:35:20;;;;;;;4.93;2.00;;;25.00;99.90;;;;;;5067228;28;20248;-69
2022/08/24 07:37:47;;;;;;;6.78;2.20;;;25.30;99.90;;;;;;5061037;28;20214;-71
2022/08/24 07:40:17;;;;;;;4.22;2.20;;;25.40;99.90;;;;;;5059882;28;20224;-68
2022/08/24 07:42:48;;;;;;;5.05;2.10;;;25.40;99.90;;;;;;5057593;28;20203;-71
2022/08/24 07:45:15;;;;;;;4.93;2.00;;;25.40;99.90;;;;;;5052001;28;20198;-71
2022/08/24 07:47:42;;;;;;;4.93;1.83;;;25.50;99.90;;;;;;5059248;28;20214;-69
2022/08/24 07:50:20;;;;;;;7.80;2.38;;;25.50;99.90;;;;;;5062662;28;20190;-71
2022/08/24 07:52:47;;;;;;;5.53;2.20;;;25.60;99.90;;;;;;5035962;28;20210;-72
2022/08/24 07:55:14;;;;;;;4.35;2.60;;;25.80;99.90;;;;;;5066370;28;20201;-71
2022/08/24 07:57:43;;;;;;;3.97;2.03;;;25.90;99.90;;;;;;5058881;28;20236;-69
2022/08/24 08:00:12;;;;;;;5.25;2.30;;;26.10;99.90;;;;;;5064787;28;20186;-70
2022/08/24 08:02:41;;;;;;;4.72;2.03;;;26.30;99.90;;;;;;5040035;28;20195;-71
2022/08/24 08:05:09;;;;;;;3.40;2.00;;;26.40;99.90;;;;;;5064887;28;20226;-71
2022/08/24 08:07:35;;;;;;;3.35;2.20;;;26.60;99.90;;;;;;5064048;28;20218;-69
2022/08/24 08:10:03;;;;;;;4.40;2.30;;;26.70;99.90;;;;;;5057091;28;20191;-71
2022/08/24 08:12:29;;;;;;;5.00;1.83;;;26.80;99.90;;;;;;5062079;28;20248;-71
2022/08/24 08:14:56;;;;;;;6.05;2.08;;;26.80;99.90;;;;;;5064095;28;20205;-72
2022/08/24 08:17:23;;;;;;;5.32;2.10;;;26.60;99.90;;;;;;5046661;28;20563;-69
2022/08/24 08:19:49;;;;;;;4.07;2.20;;;26.80;99.90;;;;;;5057346;28;20214;-69
2022/08/24 08:25:02;;;;;;;7.07;2.10;;;27.30;99.90;;;;;;5064974;28;20190;-69
2022/08/24 08:27:29;;;;;;;6.68;2.70;;;27.50;99.90;;;;;;5060199;28;20221;-72
2022/08/24 08:29:56;;;;;;;6.07;2.17;;;27.70;99.90;;;;;;5065388;28;20226;-73
2022/08/24 08:32:23;;;;;;;3.33;2.20;;;27.90;99.90;;;;;;5054784;28;20209;-72
2022/08/24 08:34:49;;;;;;;5.57;2.40;;;28.00;99.90;;;;;;5062380;28;20249;-72
2022/08/24 08:37:17;;;;;;;5.47;2.30;;;28.20;99.90;;;;;;5057765;28;20634;-71
2022/08/24 08:39:43;;;;;;;4.88;2.15;;;28.30;99.90;;;;;;5058567;28;20245;-73
2022/08/24 08:42:37;;;;;;;5.03;2.47;;;28.30;99.90;;;;;;5057464;28;20233;-72
2022/08/24 08:45:30;;;;;;;5.55;2.35;;;28.40;99.90;;;;;;5062969;28;20202;-73
2022/08/24 08:48:41;;;;;;;9.15;2.40;;;28.40;99.90;;;;;;5065305;28;20296;-70
2022/08/24 08:51:39;;;;;;;3.10;2.22;;;28.60;99.90;;;;;;5015211;28;20186;-73
2022/08/24 08:54:11;;;;;;;5.68;2.30;;;28.70;99.90;;;;;;5063173;28;20201;-72
2022/08/24 08:57:08;;;;;;;7.65;2.40;;;28.80;99.90;;;;;;5064881;28;20218;-73
2022/08/24 08:59:47;;;;;;;8.52;2.42;;;28.80;99.90;;;;;;5064984;28;20218;-73
2022/08/24 09:02:51;;;;;;;6.25;2.25;;;28.90;99.90;;;;;;5067768;28;20208;-73
2022/08/24 09:05:40;;;;;;;5.50;2.35;;;28.90;99.90;;;;;;5067492;28;20194;-72
2022/08/24 09:08:16;;;;;;;3.40;2.40;;;28.80;99.90;;;;;;5064436;28;20213;-73
2022/08/24 09:10:54;;;;;;;5.88;2.30;;;28.80;99.90;;;;;;5057225;28;20197;-72
2022/08/24 09:13:32;;;;;;;3.90;2.38;;;28.90;99.90;;;;;;5066437;28;20194;-73
2022/08/24 09:16:14;;;;;;;11.45;3.70;;;28.90;99.90;;;;;;5064048;28;20809;-73
2022/08/24 09:19:16;;;;;;;8.48;2.40;;;29.10;99.90;;;;;;5060462;28;20313;-73
2022/08/24 09:22:07;;;;;;;4.97;2.15;;;29.10;99.90;;;;;;5029315;28;20219;-71
2022/08/24 09:24:52;;;;;;;6.10;2.42;;;29.20;99.90;;;;;;5060424;28;20199;-70
2022/08/24 09:28:00;;;;;;;5.13;2.35;;;29.50;99.90;;;;;;5068010;28;20214;-71
2022/08/24 09:30:43;;;;;;;4.07;2.42;;;29.70;99.90;;;;;;5069930;28;20202;-72
2022/08/24 09:33:21;;;;;;;3.85;2.15;;;29.80;99.90;;;;;;5058953;28;20634;-73
2022/08/24 09:36:10;;;;;;;7.95;2.20;;;29.80;99.90;;;;;;5064524;28;20225;-73
2022/08/24 09:38:46;;;;;;;5.03;2.20;;;29.70;99.90;;;;;;5069328;28;20666;-72
2022/08/24 09:41:36;;;;;;;9.10;2.53;;;29.90;99.80;;;;;;5061942;28;20193;-72
2022/08/24 09:44:32;;;;;;;7.88;2.40;;;30.10;99.50;;;;;;5031655;28;20198;-71
2022/08/24 09:47:11;;;;;;;4.45;2.22;;;30.40;99.30;;;;;;5061782;28;20214;-72
2022/08/24 09:49:56;;;;;;;3.28;2.30;;;30.50;98.30;;;;;;5059677;28;20209;-72
2022/08/24 09:52:28;;;;;;;7.57;2.70;;;30.50;98.00;;;;;;5061608;28;20195;-73
2022/08/24 09:55:30;;;;;;;7.15;2.40;;;30.20;98.00;;;;;;5058189;28;20220;-72
2022/08/24 09:58:00;;;;;;;5.85;2.20;;;30.20;98.70;;;;;;5066625;28;20233;-72
2022/08/24 10:00:55;;;;;;;5.35;2.60;;;30.40;98.50;;;;;;5067849;28;20309;-73
2022/08/24 10:03:56;;;;;;;7.97;2.42;;;30.60;98.20;;;;;;5063217;28;20273;-72
2022/08/24 10:06:42;;;;;;;4.38;2.28;;;30.90;98.30;;;;;;5066167;28;20233;-72
2022/08/24 10:09:36;;;;;;;15.60;2.70;;;31.00;97.70;;;;;;5046547;28;20194;-73
2022/08/24 10:12:54;;;;;;;6.25;2.70;;;31.20;97.80;;;;;;5066952;28;20202;-71
2022/08/24 10:15:53;;;;;;;3.58;2.20;;;31.40;97.30;;;;;;5022403;28;20290;-74
2022/08/24 10:18:39;;;;;;;3.72;2.55;;;31.70;97.20;;;;;;5049559;28;20209;-73
2022/08/24 10:21:21;;;;;;;5.05;2.25;;;31.90;97.00;;;;;;5063355;28;20195;-72
2022/08/24 10:24:12;;;;;;;4.55;2.55;;;32.10;96.80;;;;;;5060237;28;20211;-73
2022/08/24 10:26:57;;;;;;;4.70;2.78;;;32.10;96.60;;;;;;5070777;28;20636;-73
2022/08/24 10:30:01;;;;;;;5.28;2.30;;;32.20;95.70;;;;;;5057262;28;20213;-73
2022/08/24 10:33:05;;;;;;;4.18;2.47;;;32.10;95.90;;;;;;5061972;28;20224;-73
2022/08/24 10:35:37;;;;;;;3.42;2.50;;;32.10;96.00;;;;;;5066218;28;20202;-71
2022/08/24 10:41:31;;;;;;;4.20;2.10;;;31.70;95.20;;;;;;5061497;28;20373;-74
2022/08/24 10:44:33;;;;;;;3.80;2.60;;;31.70;96.00;;;;;;5061432;28;20245;-74
2022/08/24 10:47:10;;;;;;;6.20;2.30;;;31.90;95.60;;;;;;5068816;28;20579;-73
2022/08/24 10:50:14;;;;;;;4.80;2.30;;;32.10;94.80;;;;;;5065668;28;20205;-71
2022/08/24 10:53:12;;;;;;;4.28;2.35;;;32.30;95.10;;;;;;5061880;28;20673;-69
2022/08/24 10:55:39;;;;;;;2.75;2.50;;;32.40;95.30;;;;;;5056051;28;20209;-73
2022/08/24 10:58:21;;;;;;;3.40;2.33;;;32.60;94.90;;;;;;5053591;28;20210;-72
2022/08/24 11:00:48;;;;;;;4.28;2.88;;;32.70;94.80;;;;;;5067322;28;20214;-74
2022/08/24 11:03:20;;;;;;;4.22;2.35;;;32.80;95.10;;;;;;5056113;28;20197;-73
2022/08/24 11:05:56;;;;;;;5.78;2.25;;;32.60;93.50;;;;;;5067160;28;20214;-72
2022/08/24 11:08:29;;;;;;;5.70;2.63;;;32.40;94.10;;;;;;5065016;28;20221;-71
2022/08/24 11:11:13;;;;;;;4.25;2.38;;;32.40;94.50;;;;;;5065122;28;20203;-72
2022/08/24 11:14:15;;;;;;;3.67;2.30;;;32.60;94.40;;;;;;5055638;28;20198;-72
2022/08/24 11:16:45;;;;;;;5.38;2.58;;;32.80;94.10;;;;;;5044742;28;20229;-73
2022/08/24 11:19:34;;;;;;;3.80;2.30;;;32.80;92.60;;;;;;5068567;28;20703;-72
2022/08/24 11:22:23;;;;;;;3.28;2.17;;;32.90;92.90;;;;;;5059924;28;20191;-71
2022/08/24 11:25:15;;;;;;;4.40;2.20;;;33.10;93.10;;;;;;5060647;28;20194;-72
2022/08/24 11:27:49;;;;;;;6.22;2.42;;;33.20;93.10;;;;;;5050857;28;20763;-72
2022/08/24 11:30:24;;;;;;;4.15;2.03;;;33.40;92.50;;;;;;5060745;28;20213;-75
2022/08/24 11:33:00;;;;;;;7.18;2.15;;;33.50;91.40;;;;;;5051860;28;20209;-70
2022/08/24 11:35:38;;;;;;;4.75;2.20;;;33.40;91.80;;;;;;5066643;28;20288;-71
2022/08/24 11:38:25;;;;;;;9.75;2.42;;;33.60;91.10;;;;;;5028271;28;20201;-71
2022/08/24 11:41:24;;;;;;;7.25;2.83;;;33.50;90.80;;;;;;5042541;28;20578;-71
2022/08/24 11:44:06;;;;;;;4.05;2.03;;;33.60;90.80;;;;;;5065657;28;20195;-72
2022/08/24 11:46:40;;;;;;;3.85;2.60;;;33.50;89.90;;;;;;5057080;28;20218;-71
2022/08/24 11:49:16;;;;;;;5.22;2.33;;;33.60;90.90;;;;;;5065342;28;20318;-71
2022/08/24 11:51:53;;;;;;;4.05;2.50;;;33.70;90.80;;;;;;5064326;28;20190;-71
2022/08/24 11:54:36;;;;;;;5.38;2.55;;;33.60;91.20;;;;;;5065148;28;20193;-72
2022/08/24 11:57:07;;;;;;;6.57;2.60;;;33.60;90.60;;;;;;5061621;28;20209;-72
2022/08/24 11:59:44;;;;;;;3.90;2.70;;;33.60;90.40;;;;;;5062181;28;20804;-73
2022/08/24 12:02:21;;;;;;;3.22;2.42;;;33.60;91.00;;;;;;5068657;28;20684;-72
2022/08/24 12:05:09;;;;;;;5.00;2.47;;;33.50;90.00;;;;;;5063019;28;20256;-69
2022/08/24 12:07:58;;;;;;;2.60;2.30;;;33.30;90.00;;;;;;5061542;28;20210;-71
2022/08/24 12:10:46;;;;;;;6.53;2.75;;;33.40;90.40;;;;;;5063236;28;20209;-68
2022/08/24 12:13:46;;;;;;;2.50;2.30;;;33.60;90.70;;;;;;5066565;28;20194;-71
2022/08/24 12:16:32;;;;;;;4.47;2.70;;;33.80;90.30;;;;;;5062816;28;20225;-72
2022/08/24 12:19:15;;;;;;;4.45;2.78;;;33.90;90.70;;;;;;5063996;28;20325;-71
2022/08/24 12:21:46;;;;;;;4.70;2.58;;;34.10;90.20;;;;;;5066680;28;20329;-71
2022/08/24 12:24:25;;;;;;;4.32;2.55;;;34.20;90.40;;;;;;5062723;28;20190;-72
2022/08/24 12:27:02;;;;;;;6.68;2.83;;;34.30;90.20;;;;;;5063496;28;20214;-70
2022/08/24 12:30:11;;;;;;;9.70;2.75;;;34.40;88.80;;;;;;5061999;28;20951;-70
2022/08/24 12:32:50;;;;;;;4.80;3.05;;;34.10;88.00;;;;;;5021664;28;20214;-72
2022/08/24 12:35:25;;;;;;;4.45;2.70;;;34.00;88.10;;;;;;5063422;28;20198;-71
2022/08/24 12:37:58;;;;;;;3.97;2.53;;;34.00;88.10;;;;;;5064206;28;20204;-71
2022/08/24 12:40:38;;;;;;;6.43;2.88;;;33.90;89.30;;;;;;5063444;28;20218;-72
2022/08/24 12:43:13;;;;;;;5.53;2.67;;;33.90;87.00;;;;;;5064760;28;20197;-72
2022/08/24 12:45:40;;;;;;;4.85;2.75;;;33.80;86.80;;;;;;5064574;28;20221;-71
2022/08/24 12:48:13;;;;;;;2.88;2.60;;;33.60;87.80;;;;;;5065192;28;20201;-71
2022/08/24 12:51:04;;;;;;;5.70;2.72;;;33.60;87.90;;;;;;5065716;28;20224;-69
2022/08/24 12:53:39;;;;;;;5.32;2.95;;;33.80;87.00;;;;;;5063647;28;20741;-71
2022/08/24 12:56:36;;;;;;;4.60;2.80;;;33.80;85.60;;;;;;5062439;28;20222;-72
2022/08/24 12:59:25;;;;;;;2.92;2.45;;;33.90;86.40;;;;;;5058166;28;20194;-73
2022/08/24 13:02:00;;;;;;;6.03;2.65;;;34.00;86.00;;;;;;5067708;28;20587;-73
2022/08/24 13:04:42;;;;;;;3.75;2.78;;;34.10;87.00;;;;;;5059507;28;20204;-72
2022/08/24 13:07:30;;;;;;;4.10;2.70;;;33.80;84.50;;;;;;5066037;28;20217;-72
2022/08/24 13:09:57;;;;;;;2.65;2.40;;;33.50;84.90;;;;;;5056072;28;20674;-68
2022/08/24 13:12:45;;;;;;;3.40;2.45;;;33.20;88.10;;;;;;5064312;28;20696;-70
2022/08/24 13:15:17;;;;;;;6.18;2.72;;;33.10;87.90;;;;;;5063770;28;20669;-71
2022/08/24 13:17:44;;;;;;;3.60;2.50;;;33.20;87.30;;;;;;5065644;28;20230;-71
2022/08/24 13:20:19;;;;;;;4.65;2.67;;;33.30;86.40;;;;;;5066314;28;20222;-70
2022/08/24 13:23:10;;;;;;;3.47;2.40;;;33.40;86.30;;;;;;5066732;28;20669;-72
2022/08/24 13:25:46;;;;;;;3.53;2.60;;;33.50;85.50;;;;;;5059492;28;20190;-70
2022/08/24 13:28:21;;;;;;;5.57;2.60;;;33.70;86.00;;;;;;5061561;28;20562;-70
2022/08/24 13:31:04;;;;;;;4.55;2.38;;;33.90;85.50;;;;;;5058425;28;20198;-72